| Date | Time | Temp. (oF) | Dew Point (oF) | Rel. Hum. (%) | Press. (in.) | Wind Dir. | Wind Speed (mph) | Hourly Rainfall (in.) |
|
|---|---|---|---|---|---|---|---|---|---|
| 1 | 05/20 | 00:00 | 51 | 49 | 96 | 30.11 | NE | 0 | 0.00 |
| 2 | 05/19 | 23:00 | 53 | 48 | 86 | 30.09 | NNE | 0 | 0.00 |
| 3 | 05/19 | 22:00 | 57 | 47 | 70 | 30.08 | NNE | 0 | 0.00 |
| 4 | 05/19 | 21:00 | 62 | 47 | 59 | 30.06 | N | 0 | 0.00 |
| 5 | 05/19 | 20:00 | 67 | 46 | 48 | 30.04 | NNE | 0 | 0.00 |
| 6 | 05/19 | 19:00 | 71 | 47 | 44 | 30.02 | N | 0 | 0.00 |
| 7 | 05/19 | 18:00 | 71 | 48 | 45 | 30.01 | NNW | 0 | 0.00 |
| 8 | miss | miss | miss | miss | miss | miss | miss | miss | |
| 9 | 05/19 | 17:31 | 70 | 46 | 44 | 30.00 | W | 0 | 0.00 |
| 10 | miss | miss | miss | miss | miss | miss | miss | miss | |
| 11 | 05/19 | 17:29 | 70 | 46 | 44 | 30.00 | NNE | 0 | 0.00 |
| 12 | miss | miss | miss | miss | miss | miss | miss | miss | |
| 13 | 05/19 | 17:27 | 70 | 48 | 46 | 30.00 | WSW | 0 | 0.00 |
| 14 | miss | miss | miss | miss | miss | miss | miss | miss | |
| 15 | 05/19 | 17:25 | 70 | 48 | 47 | 30.00 | N | 0 | 0.00 |
| 16 | miss | miss | miss | miss | miss | miss | miss | miss | |
| 17 | 05/19 | 17:23 | 69 | 46 | 45 | 30.00 | NNE | 0 | 0.00 |
| 18 | miss | miss | miss | miss | miss | miss | miss | miss | |
| 19 | 05/19 | 17:21 | 69 | 46 | 45 | 30.00 | NE | 0 | 0.00 |
| 20 | miss | miss | miss | miss | miss | miss | miss | miss | |
| 21 | 05/19 | 17:19 | 69 | 46 | 44 | 30.00 | WSW | 1 | 0.00 |
| 22 | miss | miss | miss | miss | miss | miss | miss | miss | |
| 23 | 05/19 | 17:17 | 69 | 46 | 44 | 30.00 | NNW | 0 | 0.00 |
| 24 | miss | miss | miss | miss | miss | miss | miss | miss | |
| 25 | 05/19 | 17:15 | 69 | 46 | 44 | 30.00 | WSW | 0 | 0.00 |
| 26 | miss | miss | miss | miss | miss | miss | miss | miss | |
| 27 | 05/19 | 17:15 | 69 | 46 | 44 | 30.00 | WSW | 0 | 0.00 |
| 28 | miss | miss | miss | miss | miss | miss | miss | miss | |
| 29 | 05/19 | 17:15 | 69 | 46 | 44 | 30.00 | WSW | 0 | 0.00 |
| 30 | miss | miss | miss | miss | miss | miss | miss | miss | |
| 31 | 05/19 | 17:15 | 69 | 46 | 44 | 30.00 | WSW | 0 | 0.00 |
| 32 | 05/19 | 17:00 | 71 | 46 | 42 | 30.00 | NNE | 0 | 0.00 |
| 33 | 05/19 | 16:00 | 70 | 49 | 49 | 30.01 | WSW | 0 | 0.00 |
| 34 | 05/19 | 15:00 | 68 | 49 | 51 | 30.03 | W | 0 | 0.00 |
| 35 | 05/19 | 14:00 | 69 | 52 | 56 | 30.03 | WSW | 4 | 0.00 |
| 36 | 05/19 | 13:00 | 69 | 53 | 57 | 30.04 | N | 0 | 0.00 |
| 37 | 05/19 | 12:00 | 67 | 57 | 72 | 30.05 | NNE | 0 | 0.00 |
| 38 | 05/19 | 11:00 | 65 | 58 | 80 | 30.06 | WSW | 1 | 0.00 |
| 39 | 05/19 | 10:00 | 62 | 56 | 82 | 30.06 | N | 3 | 0.00 |
| 40 | 05/19 | 09:00 | 58 | 56 | 94 | 30.06 | W | 3 | 0.00 |
| 41 | 05/19 | 08:00 | 54 | 54 | 100 | 30.06 | SW | 3 | 0.00 |
| 42 | 05/19 | 07:00 | 51 | 50 | 100 | 30.06 | W | 4 | 0.00 |
| 43 | 05/19 | 06:00 | 51 | 50 | 100 | 30.04 | SSW | 0 | 0.00 |
| 44 | 05/19 | 05:00 | 51 | 50 | 100 | 30.04 | S | 0 | 0.00 |
| 45 | 05/19 | 04:00 | 51 | 50 | 100 | 30.03 | SSW | 0 | 0.00 |
| 46 | 05/19 | 03:00 | 52 | 51 | 100 | 30.03 | E | 0 | 0.01 |
| 47 | 05/19 | 02:00 | 52 | 51 | 100 | 30.04 | S | 0 | 0.00 |
| 48 | 05/19 | 01:00 | 52 | 51 | 100 | 30.04 | SSE | 0 | 0.00 |
| 49 | 05/19 | 00:00 | 53 | 53 | 100 | 30.04 | SSW | 0 | -0.01 |
| 50 | 05/18 | 23:00 | 53 | 53 | 100 | 30.04 | S | 1 | 0.01 |
| 51 | 05/18 | 22:00 | 55 | 52 | 91 | 30.04 | W | 0 | 0.00 |
| 52 | 05/18 | 21:00 | 56 | 54 | 96 | 30.03 | WSW | 1 | 0.00 |
| 53 | 05/18 | 20:00 | 56 | 54 | 95 | 30.02 | N | 0 | 0.00 |
| 54 | 05/18 | 19:00 | 57 | 54 | 92 | 30.02 | N | 2 | 0.01 |
| 55 | 05/18 | 18:00 | 60 | 50 | 70 | 30.01 | W | 4 | 0.00 |
| 56 | 05/18 | 17:00 | 61 | 50 | 68 | 30.01 | NE | 7 | 0.00 |
| 57 | 05/18 | 16:00 | 61 | 49 | 65 | 30.02 | ENE | 0 | 0.00 |
| 58 | 05/18 | 15:00 | 61 | 47 | 61 | 30.03 | ENE | 0 | 0.00 |
| 59 | 05/18 | 14:00 | 61 | 49 | 66 | 30.05 | SSW | 0 | 0.00 |
| 60 | 05/18 | 13:00 | 61 | 48 | 63 | 30.07 | SE | 0 | 0.00 |
| 61 | 05/18 | 12:00 | 59 | 49 | 71 | 30.07 | SE | 5 | 0.00 |
| 62 | 05/18 | 11:00 | 57 | 51 | 81 | 30.08 | ESE | 9 | 0.00 |
| 63 | 05/18 | 10:00 | 55 | 52 | 90 | 30.10 | ESE | 2 | 0.00 |
| 64 | 05/18 | 09:00 | 53 | 53 | 100 | 30.09 | ESE | 4 | 0.00 |
| 65 | 05/18 | 08:00 | 51 | 50 | 100 | 30.09 | E | 1 | 0.00 |
| 66 | 05/18 | 07:00 | 50 | 50 | 100 | 30.09 | ENE | 1 | 0.00 |
| 67 | 05/18 | 06:00 | 49 | 49 | 100 | 30.08 | WSW | 0 | 0.00 |
| 68 | 05/18 | 05:00 | 49 | 49 | 100 | 30.07 | ENE | 0 | 0.00 |
| 69 | 05/18 | 04:00 | 49 | 49 | 100 | 30.05 | NE | 0 | 0.00 |
| 70 | 05/18 | 03:00 | 49 | 49 | 100 | 30.06 | S | 0 | 0.00 |
| 71 | 05/18 | 02:00 | 49 | 49 | 100 | 30.07 | N | 0 | 0.00 |
| 72 | 05/18 | 01:00 | 49 | 49 | 100 | 30.07 | SSW | 0 | 0.00 |
| 73 | 05/18 | 00:00 | 49 | 49 | 100 | 30.09 | SSW | 1 | -0.02 |